sensor_id;sensor_type;location;lat;lon;timestamp;temperature;humidity
11812;DHT22;5963;50.184;9.162;2022-10-16T00:01:10;14.90;99.90
11812;DHT22;5963;50.184;9.162;2022-10-16T00:03:41;14.90;99.90
11812;DHT22;5963;50.184;9.162;2022-10-16T00:06:12;14.90;99.90
11812;DHT22;5963;50.184;9.162;2022-10-16T00:08:44;14.80;99.90
11812;DHT22;5963;50.184;9.162;2022-10-16T00:11:20;14.80;99.90
11812;DHT22;5963;50.184;9.162;2022-10-16T00:13:52;14.80;99.90
11812;DHT22;5963;50.184;9.162;2022-10-16T00:16:23;14.80;99.90
11812;DHT22;5963;50.184;9.162;2022-10-16T00:18:55;14.80;99.90
11812;DHT22;5963;50.184;9.162;2022-10-16T00:21:27;14.80;99.90
11812;DHT22;5963;50.184;9.162;2022-10-16T00:23:59;14.80;99.90
11812;DHT22;5963;50.184;9.162;2022-10-16T00:26:40;14.80;99.90
11812;DHT22;5963;50.184;9.162;2022-10-16T00:29:10;14.90;99.90
11812;DHT22;5963;50.184;9.162;2022-10-16T00:31:40;14.90;99.90
11812;DHT22;5963;50.184;9.162;2022-10-16T00:34:10;14.90;99.90
11812;DHT22;5963;50.184;9.162;2022-10-16T00:36:44;14.80;99.90
11812;DHT22;5963;50.184;9.162;2022-10-16T00:39:18;14.70;99.90
11812;DHT22;5963;50.184;9.162;2022-10-16T00:41:48;14.70;99.90
11812;DHT22;5963;50.184;9.162;2022-10-16T00:44:42;14.70;99.90
11812;DHT22;5963;50.184;9.162;2022-10-16T00:47:15;14.70;99.90
11812;DHT22;5963;50.184;9.162;2022-10-16T00:49:48;14.70;99.90
11812;DHT22;5963;50.184;9.162;2022-10-16T00:52:20;14.70;99.90
11812;DHT22;5963;50.184;9.162;2022-10-16T00:54:51;14.70;99.90
11812;DHT22;5963;50.184;9.162;2022-10-16T00:57:23;14.70;99.90
11812;DHT22;5963;50.184;9.162;2022-10-16T00:59:55;14.70;99.90
11812;DHT22;5963;50.184;9.162;2022-10-16T01:02:27;14.70;99.90
11812;DHT22;5963;50.184;9.162;2022-10-16T01:04:57;14.60;99.90
11812;DHT22;5963;50.184;9.162;2022-10-16T01:07:33;14.70;99.90
11812;DHT22;5963;50.184;9.162;2022-10-16T01:10:14;14.70;99.90
11812;DHT22;5963;50.184;9.162;2022-10-16T01:12:51;14.60;99.90
11812;DHT22;5963;50.184;9.162;2022-10-16T01:15:32;14.70;99.90
11812;DHT22;5963;50.184;9.162;2022-10-16T01:18:12;14.80;99.90
11812;DHT22;5963;50.184;9.162;2022-10-16T01:20:47;14.80;99.90
11812;DHT22;5963;50.184;9.162;2022-10-16T01:23:31;14.80;99.90
11812;DHT22;5963;50.184;9.162;2022-10-16T01:26:28;14.80;99.90
11812;DHT22;5963;50.184;9.162;2022-10-16T01:29:05;14.90;99.90
11812;DHT22;5963;50.184;9.162;2022-10-16T01:31:42;14.90;99.90
11812;DHT22;5963;50.184;9.162;2022-10-16T01:34:20;14.90;99.90
11812;DHT22;5963;50.184;9.162;2022-10-16T01:36:55;15.10;99.90
11812;DHT22;5963;50.184;9.162;2022-10-16T01:39:32;15.10;99.90
11812;DHT22;5963;50.184;9.162;2022-10-16T01:42:12;15.10;99.90
11812;DHT22;5963;50.184;9.162;2022-10-16T01:44:45;15.20;99.90
11812;DHT22;5963;50.184;9.162;2022-10-16T01:47:19;15.10;99.90
11812;DHT22;5963;50.184;9.162;2022-10-16T01:49:53;15.20;99.90
11812;DHT22;5963;50.184;9.162;2022-10-16T01:52:28;15.20;99.90
11812;DHT22;5963;50.184;9.162;2022-10-16T01:55:10;15.20;99.90
11812;DHT22;5963;50.184;9.162;2022-10-16T01:57:44;15.20;99.90
11812;DHT22;5963;50.184;9.162;2022-10-16T02:00:21;15.20;99.90
11812;DHT22;5963;50.184;9.162;2022-10-16T02:02:55;15.20;99.90
11812;DHT22;5963;50.184;9.162;2022-10-16T02:05:27;15.10;99.90
11812;DHT22;5963;50.184;9.162;2022-10-16T02:07:58;15.00;99.90
11812;DHT22;5963;50.184;9.162;2022-10-16T02:10:33;15.00;99.90
11812;DHT22;5963;50.184;9.162;2022-10-16T02:13:13;15.00;99.90
11812;DHT22;5963;50.184;9.162;2022-10-16T02:15:53;15.00;99.90
11812;DHT22;5963;50.184;9.162;2022-10-16T02:18:23;14.90;99.90
11812;DHT22;5963;50.184;9.162;2022-10-16T02:21:02;14.90;99.90
11812;DHT22;5963;50.184;9.162;2022-10-16T02:23:40;14.90;99.90
11812;DHT22;5963;50.184;9.162;2022-10-16T02:26:16;14.80;99.90
11812;DHT22;5963;50.184;9.162;2022-10-16T02:28:58;14.80;99.90
11812;DHT22;5963;50.184;9.162;2022-10-16T02:31:40;14.70;99.90
11812;DHT22;5963;50.184;9.162;2022-10-16T02:36:41;14.70;99.90
11812;DHT22;5963;50.184;9.162;2022-10-16T02:39:12;14.60;99.90
11812;DHT22;5963;50.184;9.162;2022-10-16T02:41:43;14.60;99.90
11812;DHT22;5963;50.184;9.162;2022-10-16T02:44:13;14.60;99.90
11812;DHT22;5963;50.184;9.162;2022-10-16T02:46:44;14.60;99.90
11812;DHT22;5963;50.184;9.162;2022-10-16T02:49:14;14.60;99.90
11812;DHT22;5963;50.184;9.162;2022-10-16T02:51:45;14.60;99.90
11812;DHT22;5963;50.184;9.162;2022-10-16T02:54:16;14.50;99.90
11812;DHT22;5963;50.184;9.162;2022-10-16T02:56:46;14.50;99.90
11812;DHT22;5963;50.184;9.162;2022-10-16T02:59:18;14.50;99.90
11812;DHT22;5963;50.184;9.162;2022-10-16T03:01:50;14.50;99.90
11812;DHT22;5963;50.184;9.162;2022-10-16T03:04:20;14.50;99.90
11812;DHT22;5963;50.184;9.162;2022-10-16T03:06:50;14.50;99.90
11812;DHT22;5963;50.184;9.162;2022-10-16T03:09:20;14.50;99.90
11812;DHT22;5963;50.184;9.162;2022-10-16T03:11:50;14.50;99.90
11812;DHT22;5963;50.184;9.162;2022-10-16T03:14:22;14.40;99.90
11812;DHT22;5963;50.184;9.162;2022-10-16T03:16:54;14.40;99.90
11812;DHT22;5963;50.184;9.162;2022-10-16T03:19:25;14.40;99.90
11812;DHT22;5963;50.184;9.162;2022-10-16T03:21:55;14.40;99.90
11812;DHT22;5963;50.184;9.162;2022-10-16T03:24:26;14.40;99.90
11812;DHT22;5963;50.184;9.162;2022-10-16T03:26:55;14.30;99.90
11812;DHT22;5963;50.184;9.162;2022-10-16T03:29:26;14.40;99.90
11812;DHT22;5963;50.184;9.162;2022-10-16T03:31:59;14.40;99.90
11812;DHT22;5963;50.184;9.162;2022-10-16T03:34:30;14.40;99.90
11812;DHT22;5963;50.184;9.162;2022-10-16T03:37:00;14.40;99.90
11812;DHT22;5963;50.184;9.162;2022-10-16T03:39:30;14.50;99.90
11812;DHT22;5963;50.184;9.162;2022-10-16T03:42:02;14.50;99.90
11812;DHT22;5963;50.184;9.162;2022-10-16T03:44:33;14.50;99.90
11812;DHT22;5963;50.184;9.162;2022-10-16T03:47:04;14.60;99.90
11812;DHT22;5963;50.184;9.162;2022-10-16T03:49:34;14.60;99.90
11812;DHT22;5963;50.184;9.162;2022-10-16T03:52:06;14.60;99.90
11812;DHT22;5963;50.184;9.162;2022-10-16T03:54:36;14.60;99.90
11812;DHT22;5963;50.184;9.162;2022-10-16T03:57:07;14.60;99.90
11812;DHT22;5963;50.184;9.162;2022-10-16T03:59:37;14.50;99.90
11812;DHT22;5963;50.184;9.162;2022-10-16T04:02:08;14.60;99.90
11812;DHT22;5963;50.184;9.162;2022-10-16T04:04:39;14.60;99.90
11812;DHT22;5963;50.184;9.162;2022-10-16T04:07:09;14.60;99.90
11812;DHT22;5963;50.184;9.162;2022-10-16T04:09:40;14.60;99.90
11812;DHT22;5963;50.184;9.162;2022-10-16T04:12:10;14.60;99.90
11812;DHT22;5963;50.184;9.162;2022-10-16T04:14:41;14.60;99.90
11812;DHT22;5963;50.184;9.162;2022-10-16T04:17:12;14.70;99.90
11812;DHT22;5963;50.184;9.162;2022-10-16T04:19:42;14.60;99.90
11812;DHT22;5963;50.184;9.162;2022-10-16T04:22:12;14.60;99.90
11812;DHT22;5963;50.184;9.162;2022-10-16T04:24:42;14.60;99.90
11812;DHT22;5963;50.184;9.162;2022-10-16T04:27:12;14.60;99.90
11812;DHT22;5963;50.184;9.162;2022-10-16T04:29:42;14.50;99.90
11812;DHT22;5963;50.184;9.162;2022-10-16T04:32:14;14.40;99.90
11812;DHT22;5963;50.184;9.162;2022-10-16T04:34:55;14.40;99.90
11812;DHT22;5963;50.184;9.162;2022-10-16T04:37:28;14.50;99.90
11812;DHT22;5963;50.184;9.162;2022-10-16T04:40:04;14.50;99.90
11812;DHT22;5963;50.184;9.162;2022-10-16T04:42:34;14.50;99.90
11812;DHT22;5963;50.184;9.162;2022-10-16T04:45:04;14.50;99.90
11812;DHT22;5963;50.184;9.162;2022-10-16T04:47:35;14.50;99.90
11812;DHT22;5963;50.184;9.162;2022-10-16T04:50:05;14.50;99.90
11812;DHT22;5963;50.184;9.162;2022-10-16T04:52:40;14.50;99.90
11812;DHT22;5963;50.184;9.162;2022-10-16T04:55:10;14.50;99.90
11812;DHT22;5963;50.184;9.162;2022-10-16T04:57:42;14.60;99.90
11812;DHT22;5963;50.184;9.162;2022-10-16T05:00:17;14.60;99.90
11812;DHT22;5963;50.184;9.162;2022-10-16T05:02:49;14.50;99.90
11812;DHT22;5963;50.184;9.162;2022-10-16T05:05:19;14.50;99.90
11812;DHT22;5963;50.184;9.162;2022-10-16T05:07:57;14.50;99.90
11812;DHT22;5963;50.184;9.162;2022-10-16T05:10:27;14.50;99.90
11812;DHT22;5963;50.184;9.162;2022-10-16T05:12:59;14.50;99.90
11812;DHT22;5963;50.184;9.162;2022-10-16T05:15:31;14.60;99.90
11812;DHT22;5963;50.184;9.162;2022-10-16T05:18:02;14.60;99.90
11812;DHT22;5963;50.184;9.162;2022-10-16T05:20:32;14.60;99.90
11812;DHT22;5963;50.184;9.162;2022-10-16T05:23:02;14.60;99.90
11812;DHT22;5963;50.184;9.162;2022-10-16T05:25:34;14.60;99.90
11812;DHT22;5963;50.184;9.162;2022-10-16T05:28:05;14.60;99.90
11812;DHT22;5963;50.184;9.162;2022-10-16T05:30:37;14.60;99.90
11812;DHT22;5963;50.184;9.162;2022-10-16T05:33:24;14.50;99.90
11812;DHT22;5963;50.184;9.162;2022-10-16T05:35:54;14.60;99.90
11812;DHT22;5963;50.184;9.162;2022-10-16T05:38:24;14.70;99.90
11812;DHT22;5963;50.184;9.162;2022-10-16T05:40:55;14.60;99.90
11812;DHT22;5963;50.184;9.162;2022-10-16T05:43:29;14.60;99.90
11812;DHT22;5963;50.184;9.162;2022-10-16T05:46:02;14.50;99.90
11812;DHT22;5963;50.184;9.162;2022-10-16T05:48:35;14.60;99.90
11812;DHT22;5963;50.184;9.162;2022-10-16T05:51:07;14.60;99.90
11812;DHT22;5963;50.184;9.162;2022-10-16T05:53:42;14.70;99.90
11812;DHT22;5963;50.184;9.162;2022-10-16T05:56:18;14.70;99.90
11812;DHT22;5963;50.184;9.162;2022-10-16T05:58:50;14.60;99.90
11812;DHT22;5963;50.184;9.162;2022-10-16T06:01:21;14.60;99.90
11812;DHT22;5963;50.184;9.162;2022-10-16T06:03:54;14.60;99.90
11812;DHT22;5963;50.184;9.162;2022-10-16T06:06:25;14.70;99.90
11812;DHT22;5963;50.184;9.162;2022-10-16T06:08:56;14.60;99.90
11812;DHT22;5963;50.184;9.162;2022-10-16T06:11:30;14.50;99.90
11812;DHT22;5963;50.184;9.162;2022-10-16T06:14:02;14.50;99.90
11812;DHT22;5963;50.184;9.162;2022-10-16T06:16:36;14.50;99.90
11812;DHT22;5963;50.184;9.162;2022-10-16T06:19:08;14.50;99.90
11812;DHT22;5963;50.184;9.162;2022-10-16T06:21:38;14.60;99.90
11812;DHT22;5963;50.184;9.162;2022-10-16T06:24:08;14.70;99.90
11812;DHT22;5963;50.184;9.162;2022-10-16T06:26:41;14.80;99.90
11812;DHT22;5963;50.184;9.162;2022-10-16T06:29:11;14.80;99.90
11812;DHT22;5963;50.184;9.162;2022-10-16T06:31:41;14.90;99.90
11812;DHT22;5963;50.184;9.162;2022-10-16T06:34:15;14.90;99.90
11812;DHT22;5963;50.184;9.162;2022-10-16T06:36:47;14.90;99.90
11812;DHT22;5963;50.184;9.162;2022-10-16T06:39:20;15.00;99.90
11812;DHT22;5963;50.184;9.162;2022-10-16T06:41:50;15.00;99.90
11812;DHT22;5963;50.184;9.162;2022-10-16T06:44:20;15.00;99.90
11812;DHT22;5963;50.184;9.162;2022-10-16T06:46:56;15.00;99.90
11812;DHT22;5963;50.184;9.162;2022-10-16T06:49:27;15.00;99.90
11812;DHT22;5963;50.184;9.162;2022-10-16T06:51:57;15.20;99.90
11812;DHT22;5963;50.184;9.162;2022-10-16T06:54:29;15.20;99.90
11812;DHT22;5963;50.184;9.162;2022-10-16T06:57:09;15.20;99.90
11812;DHT22;5963;50.184;9.162;2022-10-16T06:59:43;15.10;99.90
11812;DHT22;5963;50.184;9.162;2022-10-16T07:02:17;15.00;99.90
11812;DHT22;5963;50.184;9.162;2022-10-16T07:04:49;15.00;99.90
11812;DHT22;5963;50.184;9.162;2022-10-16T07:07:19;15.10;99.90
11812;DHT22;5963;50.184;9.162;2022-10-16T07:09:51;15.20;99.90
11812;DHT22;5963;50.184;9.162;2022-10-16T07:12:21;15.10;99.90
11812;DHT22;5963;50.184;9.162;2022-10-16T07:14:55;15.20;99.90
11812;DHT22;5963;50.184;9.162;2022-10-16T07:17:29;15.30;99.90
11812;DHT22;5963;50.184;9.162;2022-10-16T07:20:01;15.30;99.90
11812;DHT22;5963;50.184;9.162;2022-10-16T07:22:35;15.30;99.90
11812;DHT22;5963;50.184;9.162;2022-10-16T07:25:07;15.40;99.90
11812;DHT22;5963;50.184;9.162;2022-10-16T07:27:44;15.50;99.90
11812;DHT22;5963;50.184;9.162;2022-10-16T07:30:17;15.50;99.90
11812;DHT22;5963;50.184;9.162;2022-10-16T07:32:46;15.60;99.90
11812;DHT22;5963;50.184;9.162;2022-10-16T07:35:24;15.70;99.90
11812;DHT22;5963;50.184;9.162;2022-10-16T07:37:54;15.70;99.90
11812;DHT22;5963;50.184;9.162;2022-10-16T07:40:24;15.80;99.90
11812;DHT22;5963;50.184;9.162;2022-10-16T07:43:00;15.90;99.90
11812;DHT22;5963;50.184;9.162;2022-10-16T07:45:51;16.00;99.90
11812;DHT22;5963;50.184;9.162;2022-10-16T07:48:35;16.10;99.90
11812;DHT22;5963;50.184;9.162;2022-10-16T07:51:09;16.20;99.90
11812;DHT22;5963;50.184;9.162;2022-10-16T07:53:40;16.30;99.90
11812;DHT22;5963;50.184;9.162;2022-10-16T07:56:11;16.40;99.90
11812;DHT22;5963;50.184;9.162;2022-10-16T07:58:43;16.30;99.90
11812;DHT22;5963;50.184;9.162;2022-10-16T08:01:15;16.40;99.90
11812;DHT22;5963;50.184;9.162;2022-10-16T08:03:52;16.40;99.90
11812;DHT22;5963;50.184;9.162;2022-10-16T08:06:24;16.40;99.90
11812;DHT22;5963;50.184;9.162;2022-10-16T08:08:57;16.40;99.90
11812;DHT22;5963;50.184;9.162;2022-10-16T08:11:31;16.40;99.90
11812;DHT22;5963;50.184;9.162;2022-10-16T08:14:03;16.40;99.90
11812;DHT22;5963;50.184;9.162;2022-10-16T08:16:35;16.40;99.90
11812;DHT22;5963;50.184;9.162;2022-10-16T08:19:09;16.30;99.90
11812;DHT22;5963;50.184;9.162;2022-10-16T08:21:50;16.30;99.90
11812;DHT22;5963;50.184;9.162;2022-10-16T08:24:22;16.40;99.90
11812;DHT22;5963;50.184;9.162;2022-10-16T08:26:55;16.40;99.90
11812;DHT22;5963;50.184;9.162;2022-10-16T08:29:25;16.50;99.90
11812;DHT22;5963;50.184;9.162;2022-10-16T08:31:56;16.60;99.90
11812;DHT22;5963;50.184;9.162;2022-10-16T08:34:26;16.60;99.90
11812;DHT22;5963;50.184;9.162;2022-10-16T08:37:01;16.70;99.90
11812;DHT22;5963;50.184;9.162;2022-10-16T08:39:31;16.70;99.90
11812;DHT22;5963;50.184;9.162;2022-10-16T08:42:19;16.80;99.90
11812;DHT22;5963;50.184;9.162;2022-10-16T08:45:37;16.90;99.90
11812;DHT22;5963;50.184;9.162;2022-10-16T08:48:19;16.80;99.90
11812;DHT22;5963;50.184;9.162;2022-10-16T08:51:06;16.70;99.90
11812;DHT22;5963;50.184;9.162;2022-10-16T08:53:41;16.70;99.90
11812;DHT22;5963;50.184;9.162;2022-10-16T08:56:24;16.70;99.90
11812;DHT22;5963;50.184;9.162;2022-10-16T08:58:59;16.70;99.90
11812;DHT22;5963;50.184;9.162;2022-10-16T09:01:39;16.80;99.90
11812;DHT22;5963;50.184;9.162;2022-10-16T09:04:39;16.80;99.90
11812;DHT22;5963;50.184;9.162;2022-10-16T09:07:18;16.80;99.90
11812;DHT22;5963;50.184;9.162;2022-10-16T09:10:08;16.90;99.90
11812;DHT22;5963;50.184;9.162;2022-10-16T09:12:52;17.00;99.90
11812;DHT22;5963;50.184;9.162;2022-10-16T09:15:27;17.00;99.90
11812;DHT22;5963;50.184;9.162;2022-10-16T09:18:05;17.00;99.90
11812;DHT22;5963;50.184;9.162;2022-10-16T09:20:41;17.10;99.90
11812;DHT22;5963;50.184;9.162;2022-10-16T09:23:17;17.20;99.90
11812;DHT22;5963;50.184;9.162;2022-10-16T09:25:56;17.20;99.90
11812;DHT22;5963;50.184;9.162;2022-10-16T09:28:30;17.30;99.90
11812;DHT22;5963;50.184;9.162;2022-10-16T09:31:03;17.30;99.90
11812;DHT22;5963;50.184;9.162;2022-10-16T09:33:42;17.20;99.90
11812;DHT22;5963;50.184;9.162;2022-10-16T09:36:14;17.20;99.90
11812;DHT22;5963;50.184;9.162;2022-10-16T09:38:44;17.20;99.90
11812;DHT22;5963;50.184;9.162;2022-10-16T09:41:17;17.10;99.90
11812;DHT22;5963;50.184;9.162;2022-10-16T09:43:49;17.10;99.90
11812;DHT22;5963;50.184;9.162;2022-10-16T09:46:24;17.10;99.90
11812;DHT22;5963;50.184;9.162;2022-10-16T09:48:57;17.10;99.90
11812;DHT22;5963;50.184;9.162;2022-10-16T09:51:27;17.20;99.90
11812;DHT22;5963;50.184;9.162;2022-10-16T09:54:00;17.20;99.90
11812;DHT22;5963;50.184;9.162;2022-10-16T09:56:33;17.30;99.90
11812;DHT22;5963;50.184;9.162;2022-10-16T09:59:13;17.30;99.90
11812;DHT22;5963;50.184;9.162;2022-10-16T10:04:23;17.30;99.90
11812;DHT22;5963;50.184;9.162;2022-10-16T10:06:55;17.30;99.90
11812;DHT22;5963;50.184;9.162;2022-10-16T10:09:31;17.50;99.90
11812;DHT22;5963;50.184;9.162;2022-10-16T10:12:18;17.60;99.90
11812;DHT22;5963;50.184;9.162;2022-10-16T10:14:56;17.20;99.90
11812;DHT22;5963;50.184;9.162;2022-10-16T10:17:29;17.10;99.90
11812;DHT22;5963;50.184;9.162;2022-10-16T10:20:00;17.20;99.90
11812;DHT22;5963;50.184;9.162;2022-10-16T10:22:39;17.20;99.90
11812;DHT22;5963;50.184;9.162;2022-10-16T10:28:29;17.10;99.90
11812;DHT22;5963;50.184;9.162;2022-10-16T10:31:10;17.20;99.90
11812;DHT22;5963;50.184;9.162;2022-10-16T10:33:47;17.30;99.90
11812;DHT22;5963;50.184;9.162;2022-10-16T10:36:25;17.30;99.90
11812;DHT22;5963;50.184;9.162;2022-10-16T10:39:00;17.30;99.90
11812;DHT22;5963;50.184;9.162;2022-10-16T10:42:08;17.30;99.90
11812;DHT22;5963;50.184;9.162;2022-10-16T10:44:59;17.40;99.90
11812;DHT22;5963;50.184;9.162;2022-10-16T10:47:39;17.40;99.90
11812;DHT22;5963;50.184;9.162;2022-10-16T10:50:18;17.20;99.90
11812;DHT22;5963;50.184;9.162;2022-10-16T10:52:56;17.20;99.90
11812;DHT22;5963;50.184;9.162;2022-10-16T10:55:38;17.20;99.90
11812;DHT22;5963;50.184;9.162;2022-10-16T11:01:33;17.40;99.90
11812;DHT22;5963;50.184;9.162;2022-10-16T11:07:14;17.50;99.90
11812;DHT22;5963;50.184;9.162;2022-10-16T11:09:47;17.70;99.90
11812;DHT22;5963;50.184;9.162;2022-10-16T11:12:27;17.70;99.90
11812;DHT22;5963;50.184;9.162;2022-10-16T11:15:04;17.80;99.90
11812;DHT22;5963;50.184;9.162;2022-10-16T11:17:41;18.00;99.90
11812;DHT22;5963;50.184;9.162;2022-10-16T11:20:20;18.20;99.90
11812;DHT22;5963;50.184;9.162;2022-10-16T11:22:55;18.30;99.90
11812;DHT22;5963;50.184;9.162;2022-10-16T11:25:29;18.60;99.90
11812;DHT22;5963;50.184;9.162;2022-10-16T11:28:03;18.40;99.90
11812;DHT22;5963;50.184;9.162;2022-10-16T11:30:43;18.60;99.90
11812;DHT22;5963;50.184;9.162;2022-10-16T11:33:27;18.50;99.90
11812;DHT22;5963;50.184;9.162;2022-10-16T11:36:04;18.40;99.90
11812;DHT22;5963;50.184;9.162;2022-10-16T11:38:41;18.30;99.90
11812;DHT22;5963;50.184;9.162;2022-10-16T11:41:18;18.40;99.90
11812;DHT22;5963;50.184;9.162;2022-10-16T11:44:11;18.30;99.90
11812;DHT22;5963;50.184;9.162;2022-10-16T11:46:48;18.20;99.90
11812;DHT22;5963;50.184;9.162;2022-10-16T11:49:41;18.30;99.90
11812;DHT22;5963;50.184;9.162;2022-10-16T11:52:23;18.20;99.90
11812;DHT22;5963;50.184;9.162;2022-10-16T11:54:59;18.20;99.90
11812;DHT22;5963;50.184;9.162;2022-10-16T11:57:38;18.30;99.90
11812;DHT22;5963;50.184;9.162;2022-10-16T12:00:20;18.20;99.90
11812;DHT22;5963;50.184;9.162;2022-10-16T12:03:03;18.30;99.90
11812;DHT22;5963;50.184;9.162;2022-10-16T12:05:52;18.30;99.90
11812;DHT22;5963;50.184;9.162;2022-10-16T12:08:28;18.20;99.90
11812;DHT22;5963;50.184;9.162;2022-10-16T12:11:19;18.30;99.90
11812;DHT22;5963;50.184;9.162;2022-10-16T12:14:03;18.50;99.90
11812;DHT22;5963;50.184;9.162;2022-10-16T12:16:33;18.60;99.90
11812;DHT22;5963;50.184;9.162;2022-10-16T12:19:14;18.80;99.90
11812;DHT22;5963;50.184;9.162;2022-10-16T12:21:52;18.80;99.90
11812;DHT22;5963;50.184;9.162;2022-10-16T12:24:34;18.90;99.90
11812;DHT22;5963;50.184;9.162;2022-10-16T12:27:05;18.90;99.90
11812;DHT22;5963;50.184;9.162;2022-10-16T12:29:38;18.90;99.90
11812;DHT22;5963;50.184;9.162;2022-10-16T12:32:26;19.00;99.90
11812;DHT22;5963;50.184;9.162;2022-10-16T12:35:21;19.10;99.90
11812;DHT22;5963;50.184;9.162;2022-10-16T12:38:03;19.10;99.90
11812;DHT22;5963;50.184;9.162;2022-10-16T12:40:35;19.20;99.90
11812;DHT22;5963;50.184;9.162;2022-10-16T12:43:24;19.30;99.90
11812;DHT22;5963;50.184;9.162;2022-10-16T12:46:04;19.40;99.90
11812;DHT22;5963;50.184;9.162;2022-10-16T12:48:43;19.30;99.90
11812;DHT22;5963;50.184;9.162;2022-10-16T12:51:44;19.30;99.90
11812;DHT22;5963;50.184;9.162;2022-10-16T12:54:18;19.30;99.90
11812;DHT22;5963;50.184;9.162;2022-10-16T12:57:03;19.50;99.90
11812;DHT22;5963;50.184;9.162;2022-10-16T12:59:41;19.50;99.90
11812;DHT22;5963;50.184;9.162;2022-10-16T13:02:34;19.50;99.90
11812;DHT22;5963;50.184;9.162;2022-10-16T13:05:37;19.80;99.90
11812;DHT22;5963;50.184;9.162;2022-10-16T13:08:30;19.80;99.90
11812;DHT22;5963;50.184;9.162;2022-10-16T13:11:18;19.90;99.90
11812;DHT22;5963;50.184;9.162;2022-10-16T13:14:09;20.10;99.90
11812;DHT22;5963;50.184;9.162;2022-10-16T13:16:53;20.10;99.90
11812;DHT22;5963;50.184;9.162;2022-10-16T13:19:39;19.90;99.90
11812;DHT22;5963;50.184;9.162;2022-10-16T13:22:17;19.90;99.90
11812;DHT22;5963;50.184;9.162;2022-10-16T13:24:58;19.90;99.90
11812;DHT22;5963;50.184;9.162;2022-10-16T13:27:43;19.60;99.90
11812;DHT22;5963;50.184;9.162;2022-10-16T13:30:21;19.60;99.90
11812;DHT22;5963;50.184;9.162;2022-10-16T13:33:04;19.50;99.90
11812;DHT22;5963;50.184;9.162;2022-10-16T13:35:49;19.50;99.90
11812;DHT22;5963;50.184;9.162;2022-10-16T13:38:21;19.30;99.90
11812;DHT22;5963;50.184;9.162;2022-10-16T13:40:56;19.00;99.90
11812;DHT22;5963;50.184;9.162;2022-10-16T13:43:37;19.00;99.90
11812;DHT22;5963;50.184;9.162;2022-10-16T13:46:14;18.90;99.90
11812;DHT22;5963;50.184;9.162;2022-10-16T13:48:58;19.00;99.90
11812;DHT22;5963;50.184;9.162;2022-10-16T13:51:29;19.00;99.90
11812;DHT22;5963;50.184;9.162;2022-10-16T13:54:03;19.10;99.90
11812;DHT22;5963;50.184;9.162;2022-10-16T13:56:45;19.20;99.90
11812;DHT22;5963;50.184;9.162;2022-10-16T13:59:44;19.10;99.90
11812;DHT22;5963;50.184;9.162;2022-10-16T14:02:22;19.10;99.90
11812;DHT22;5963;50.184;9.162;2022-10-16T14:04:59;19.00;99.90
11812;DHT22;5963;50.184;9.162;2022-10-16T14:07:38;18.90;99.90
11812;DHT22;5963;50.184;9.162;2022-10-16T14:10:23;18.90;99.90
11812;DHT22;5963;50.184;9.162;2022-10-16T14:13:01;18.90;99.90
11812;DHT22;5963;50.184;9.162;2022-10-16T14:15:35;18.90;99.90
11812;DHT22;5963;50.184;9.162;2022-10-16T14:18:13;18.90;99.90
11812;DHT22;5963;50.184;9.162;2022-10-16T14:21:02;18.90;99.90
11812;DHT22;5963;50.184;9.162;2022-10-16T14:23:40;18.90;99.90
11812;DHT22;5963;50.184;9.162;2022-10-16T14:26:16;18.90;99.90
11812;DHT22;5963;50.184;9.162;2022-10-16T14:29:10;18.80;99.90
11812;DHT22;5963;50.184;9.162;2022-10-16T14:31:56;18.70;99.90
11812;DHT22;5963;50.184;9.162;2022-10-16T14:34:28;18.60;99.90
11812;DHT22;5963;50.184;9.162;2022-10-16T14:37:00;18.70;99.90
11812;DHT22;5963;50.184;9.162;2022-10-16T14:39:35;18.50;99.90
11812;DHT22;5963;50.184;9.162;2022-10-16T14:42:16;18.40;99.90
11812;DHT22;5963;50.184;9.162;2022-10-16T14:44:59;18.30;99.90
11812;DHT22;5963;50.184;9.162;2022-10-16T14:47:31;18.20;99.90
11812;DHT22;5963;50.184;9.162;2022-10-16T14:50:01;18.20;99.90
11812;DHT22;5963;50.184;9.162;2022-10-16T14:52:34;18.20;99.90
11812;DHT22;5963;50.184;9.162;2022-10-16T14:55:14;18.30;99.90
11812;DHT22;5963;50.184;9.162;2022-10-16T14:57:50;18.30;99.90
11812;DHT22;5963;50.184;9.162;2022-10-16T15:00:34;18.40;99.90
11812;DHT22;5963;50.184;9.162;2022-10-16T15:03:10;18.40;99.90
11812;DHT22;5963;50.184;9.162;2022-10-16T15:05:48;18.20;99.90
11812;DHT22;5963;50.184;9.162;2022-10-16T15:08:21;18.10;99.90
11812;DHT22;5963;50.184;9.162;2022-10-16T15:10:55;18.10;99.90
11812;DHT22;5963;50.184;9.162;2022-10-16T15:13:26;18.10;99.90
11812;DHT22;5963;50.184;9.162;2022-10-16T15:15:58;18.10;99.90
11812;DHT22;5963;50.184;9.162;2022-10-16T15:18:36;18.00;99.90
11812;DHT22;5963;50.184;9.162;2022-10-16T15:21:07;18.00;99.90
11812;DHT22;5963;50.184;9.162;2022-10-16T15:23:40;18.10;99.90
11812;DHT22;5963;50.184;9.162;2022-10-16T15:26:27;18.10;99.90
11812;DHT22;5963;50.184;9.162;2022-10-16T15:29:01;18.00;99.90
11812;DHT22;5963;50.184;9.162;2022-10-16T15:31:32;17.90;99.90
11812;DHT22;5963;50.184;9.162;2022-10-16T15:34:11;17.90;99.90
11812;DHT22;5963;50.184;9.162;2022-10-16T15:37:02;17.80;99.90
11812;DHT22;5963;50.184;9.162;2022-10-16T15:39:32;17.70;99.90
11812;DHT22;5963;50.184;9.162;2022-10-16T15:42:09;17.70;99.90
11812;DHT22;5963;50.184;9.162;2022-10-16T15:44:48;17.70;99.90
11812;DHT22;5963;50.184;9.162;2022-10-16T15:47:19;17.60;99.90
11812;DHT22;5963;50.184;9.162;2022-10-16T15:49:49;17.70;99.90
11812;DHT22;5963;50.184;9.162;2022-10-16T15:52:19;17.70;99.90
11812;DHT22;5963;50.184;9.162;2022-10-16T15:54:50;17.70;99.90
11812;DHT22;5963;50.184;9.162;2022-10-16T15:57:21;17.60;99.90
11812;DHT22;5963;50.184;9.162;2022-10-16T15:59:52;17.60;99.90
11812;DHT22;5963;50.184;9.162;2022-10-16T16:02:25;17.60;99.90
11812;DHT22;5963;50.184;9.162;2022-10-16T16:05:11;17.60;99.90
11812;DHT22;5963;50.184;9.162;2022-10-16T16:07:56;17.50;99.90
11812;DHT22;5963;50.184;9.162;2022-10-16T16:10:30;17.50;99.90
11812;DHT22;5963;50.184;9.162;2022-10-16T16:13:04;17.50;99.90
11812;DHT22;5963;50.184;9.162;2022-10-16T16:15:34;17.50;99.90
11812;DHT22;5963;50.184;9.162;2022-10-16T16:18:06;17.50;99.90
11812;DHT22;5963;50.184;9.162;2022-10-16T16:20:47;17.50;99.90
11812;DHT22;5963;50.184;9.162;2022-10-16T16:23:27;17.60;99.90
11812;DHT22;5963;50.184;9.162;2022-10-16T16:26:12;17.50;99.90
11812;DHT22;5963;50.184;9.162;2022-10-16T16:28:46;17.40;99.90
11812;DHT22;5963;50.184;9.162;2022-10-16T16:31:20;17.30;99.90
11812;DHT22;5963;50.184;9.162;2022-10-16T16:33:53;17.30;99.90
11812;DHT22;5963;50.184;9.162;2022-10-16T16:36:27;17.20;99.90
11812;DHT22;5963;50.184;9.162;2022-10-16T16:38:58;17.10;99.90
11812;DHT22;5963;50.184;9.162;2022-10-16T16:41:42;17.10;99.90
11812;DHT22;5963;50.184;9.162;2022-10-16T16:44:22;17.10;99.90
11812;DHT22;5963;50.184;9.162;2022-10-16T16:46:54;17.10;99.90
11812;DHT22;5963;50.184;9.162;2022-10-16T16:49:24;17.10;99.90
11812;DHT22;5963;50.184;9.162;2022-10-16T16:52:07;17.10;99.90
11812;DHT22;5963;50.184;9.162;2022-10-16T16:54:40;17.00;99.90